createdAt,value
2022-12-31T00:02:23.325Z,20.88
2022-12-31T00:04:50.545Z,21.00
2022-12-31T00:07:17.532Z,19.83
2022-12-31T00:09:44.591Z,20.00
2022-12-31T00:12:11.643Z,23.23
2022-12-31T00:14:38.776Z,21.55
2022-12-31T00:17:05.840Z,20.15
2022-12-31T00:19:33.059Z,18.58
2022-12-31T00:22:03.054Z,22.35
2022-12-31T00:24:31.249Z,20.20
2022-12-31T00:26:58.285Z,19.30
2022-12-31T00:29:25.462Z,19.92
2022-12-31T00:31:52.412Z,20.38
2022-12-31T00:34:19.644Z,21.70
2022-12-31T00:36:46.708Z,21.77
2022-12-31T00:39:13.829Z,21.75
2022-12-31T00:41:40.908Z,19.10
2022-12-31T00:44:08.140Z,20.02
2022-12-31T00:49:01.302Z,24.42
2022-12-31T00:51:29.115Z,23.48
2022-12-31T00:53:57.273Z,18.05
2022-12-31T00:56:27.924Z,19.45
2022-12-31T00:58:55.267Z,19.23
2022-12-31T01:01:25.669Z,19.98
2022-12-31T01:03:56.543Z,20.40
2022-12-31T01:06:24.421Z,19.65
2022-12-31T01:08:53.397Z,17.77
2022-12-31T01:11:22.740Z,17.38
2022-12-31T01:13:59.037Z,16.70
2022-12-31T01:16:53.270Z,22.45
2022-12-31T01:19:29.393Z,18.05
2022-12-31T01:21:56.787Z,19.35
2022-12-31T01:24:24.066Z,19.17
2022-12-31T01:26:51.973Z,17.83
2022-12-31T01:29:19.134Z,17.00
2022-12-31T01:31:46.428Z,17.02
2022-12-31T01:34:13.618Z,17.95
2022-12-31T01:36:40.716Z,19.25
2022-12-31T01:39:09.689Z,17.90
2022-12-31T01:41:39.293Z,18.25
2022-12-31T01:44:12.674Z,13.98
2022-12-31T01:49:22.853Z,15.05
2022-12-31T01:52:02.585Z,19.23
2022-12-31T01:54:33.468Z,17.02
2022-12-31T01:57:01.118Z,17.58
2022-12-31T01:59:30.459Z,18.33
2022-12-31T02:01:58.365Z,15.35
2022-12-31T02:04:26.959Z,16.02
2022-12-31T02:06:58.669Z,14.68
2022-12-31T02:09:26.164Z,16.77
2022-12-31T02:11:53.561Z,13.32
2022-12-31T02:14:30.831Z,17.00
2022-12-31T02:17:19.478Z,17.55
2022-12-31T02:20:23.624Z,13.60
2022-12-31T02:23:08.907Z,17.23
2022-12-31T02:25:55.775Z,14.25
2022-12-31T02:29:03.133Z,15.45
2022-12-31T02:31:37.800Z,14.73
2022-12-31T02:34:13.855Z,14.50
2022-12-31T02:36:44.531Z,15.52
2022-12-31T02:39:12.640Z,14.27
2022-12-31T02:41:52.175Z,16.95
2022-12-31T02:44:34.716Z,15.18
2022-12-31T02:47:28.249Z,17.15
2022-12-31T02:50:36.981Z,17.88
2022-12-31T02:53:21.904Z,13.40
2022-12-31T02:56:21.441Z,16.08
2022-12-31T02:59:46.892Z,15.23
2022-12-31T03:02:19.771Z,13.15
2022-12-31T03:04:56.296Z,16.63
2022-12-31T03:07:29.804Z,14.38
2022-12-31T03:09:56.989Z,17.60
2022-12-31T03:12:46.043Z,15.80
2022-12-31T03:15:22.908Z,15.93
2022-12-31T03:18:05.366Z,12.82
2022-12-31T03:20:54.361Z,13.98
2022-12-31T03:23:29.392Z,13.80
2022-12-31T03:25:57.415Z,16.15
2022-12-31T03:28:27.034Z,16.17
2022-12-31T03:31:04.422Z,16.63
2022-12-31T03:33:37.947Z,19.55
2022-12-31T03:36:11.841Z,15.93
2022-12-31T03:38:39.263Z,16.17
2022-12-31T03:41:06.834Z,12.57
2022-12-31T03:43:34.018Z,14.80
2022-12-31T03:46:01.721Z,14.05
2022-12-31T03:48:28.933Z,13.65
2022-12-31T03:50:55.937Z,14.18
2022-12-31T03:53:23.301Z,14.57
2022-12-31T03:55:54.126Z,11.38
2022-12-31T03:58:21.992Z,12.27
2022-12-31T04:00:50.228Z,11.60
2022-12-31T04:03:17.441Z,13.88
2022-12-31T04:05:44.610Z,12.82
2022-12-31T04:08:11.616Z,12.65
2022-12-31T04:10:38.767Z,16.95
2022-12-31T04:13:05.850Z,11.77
2022-12-31T04:15:33.031Z,11.73
2022-12-31T04:18:00.209Z,13.18
2022-12-31T04:20:27.327Z,11.90
2022-12-31T04:22:54.270Z,11.77
2022-12-31T04:25:21.387Z,15.15
2022-12-31T04:27:48.582Z,12.07
2022-12-31T04:30:15.839Z,16.48
2022-12-31T04:32:42.882Z,14.45
2022-12-31T04:35:10.876Z,11.40
2022-12-31T04:37:37.987Z,14.25
2022-12-31T04:40:07.103Z,12.40
2022-12-31T04:42:35.252Z,12.90
2022-12-31T04:45:02.682Z,12.27
2022-12-31T04:47:29.914Z,14.07
2022-12-31T04:49:56.983Z,14.35
2022-12-31T04:52:24.064Z,11.10
2022-12-31T04:54:51.109Z,10.00
2022-12-31T04:57:18.303Z,8.93
2022-12-31T04:59:45.339Z,12.77
2022-12-31T05:02:12.781Z,26.95
2022-12-31T05:04:40.005Z,14.93
2022-12-31T05:07:07.276Z,12.95
2022-12-31T05:09:34.389Z,11.90
2022-12-31T05:12:01.467Z,9.90
2022-12-31T05:14:28.511Z,12.85
2022-12-31T05:16:56.024Z,14.65
2022-12-31T05:19:23.065Z,16.50
2022-12-31T05:22:10.145Z,12.55
2022-12-31T05:24:37.310Z,10.57
2022-12-31T05:27:04.346Z,13.25
2022-12-31T05:29:31.428Z,19.75
2022-12-31T05:31:58.543Z,19.55
2022-12-31T05:34:25.576Z,21.27
2022-12-31T05:36:53.212Z,16.48
2022-12-31T05:39:21.317Z,14.00
2022-12-31T05:41:48.282Z,15.55
2022-12-31T05:44:15.393Z,14.52
2022-12-31T05:46:42.454Z,13.05
2022-12-31T05:49:09.469Z,11.15
2022-12-31T05:51:36.489Z,12.75
2022-12-31T05:54:04.071Z,13.60
2022-12-31T05:56:31.085Z,13.00
2022-12-31T05:58:58.212Z,12.88
2022-12-31T06:01:25.312Z,12.85
2022-12-31T06:03:52.607Z,15.57
2022-12-31T06:06:19.732Z,17.48
2022-12-31T06:08:51.684Z,12.10
2022-12-31T06:11:18.890Z,13.52
2022-12-31T06:13:45.870Z,14.00
2022-12-31T06:16:13.484Z,13.18
2022-12-31T06:18:40.570Z,10.57
2022-12-31T06:21:07.781Z,14.52
2022-12-31T06:23:34.991Z,10.18
2022-12-31T06:26:05.552Z,12.27
2022-12-31T06:28:33.131Z,13.40
2022-12-31T06:31:05.914Z,14.40
2022-12-31T06:33:33.636Z,13.40
2022-12-31T06:36:03.145Z,12.45
2022-12-31T06:38:32.431Z,14.27
2022-12-31T06:41:06.569Z,16.30
2022-12-31T06:43:35.330Z,14.60
2022-12-31T06:46:03.697Z,16.48
2022-12-31T06:48:31.084Z,15.05
2022-12-31T06:51:04.543Z,14.30
2022-12-31T06:56:06.076Z,16.58
2022-12-31T06:58:33.562Z,16.33
2022-12-31T07:01:05.222Z,17.27
2022-12-31T07:04:01.725Z,13.00
2022-12-31T07:06:38.199Z,14.45
2022-12-31T07:09:10.790Z,13.18
2022-12-31T07:11:46.518Z,15.32
2022-12-31T07:14:53.983Z,12.20
2022-12-31T07:17:54.804Z,13.77
2022-12-31T07:20:22.394Z,14.73
2022-12-31T07:22:49.835Z,14.95
2022-12-31T07:25:18.281Z,17.77
2022-12-31T07:28:20.417Z,15.38
2022-12-31T07:31:17.426Z,15.68
2022-12-31T07:34:15.900Z,13.38
2022-12-31T07:37:14.728Z,14.00
2022-12-31T07:39:46.841Z,14.20
2022-12-31T07:42:25.581Z,14.32
2022-12-31T07:45:05.769Z,18.98
2022-12-31T07:47:33.375Z,17.60
2022-12-31T07:50:00.902Z,16.77
2022-12-31T07:52:28.241Z,21.48
2022-12-31T07:54:55.489Z,20.50
2022-12-31T07:57:29.789Z,16.88
2022-12-31T08:00:13.551Z,17.10
2022-12-31T08:03:04.863Z,15.60
2022-12-31T08:05:44.190Z,13.70
2022-12-31T08:08:29.272Z,17.17
2022-12-31T08:11:15.786Z,17.77
2022-12-31T08:13:43.423Z,17.02
2022-12-31T08:16:13.591Z,21.30
2022-12-31T08:18:41.061Z,23.60
2022-12-31T08:21:30.999Z,22.92
2022-12-31T08:24:20.172Z,18.85
2022-12-31T08:27:00.481Z,18.90
2022-12-31T08:29:27.465Z,16.08
2022-12-31T08:32:12.319Z,17.20
2022-12-31T08:34:55.871Z,17.67
2022-12-31T08:40:28.318Z,20.15
2022-12-31T08:43:10.452Z,18.63
2022-12-31T08:45:58.003Z,17.27
2022-12-31T08:48:33.191Z,16.65
2022-12-31T08:51:00.420Z,18.00
2022-12-31T08:53:27.833Z,17.73
2022-12-31T08:56:15.694Z,14.70
2022-12-31T08:59:00.950Z,15.07
2022-12-31T09:01:36.345Z,12.73
2022-12-31T09:04:20.482Z,15.18
2022-12-31T09:06:58.954Z,13.73
2022-12-31T09:09:42.512Z,17.42
2022-12-31T09:12:32.881Z,16.90
2022-12-31T09:15:12.002Z,21.90
2022-12-31T09:17:46.104Z,14.82
2022-12-31T09:20:45.350Z,18.70
2022-12-31T09:23:13.536Z,13.80
2022-12-31T09:26:10.112Z,15.82
2022-12-31T09:28:58.801Z,12.95
2022-12-31T09:31:52.227Z,13.52
2022-12-31T09:34:22.223Z,14.10
2022-12-31T09:36:54.704Z,12.35
2022-12-31T09:39:35.720Z,13.45
2022-12-31T09:43:01.474Z,15.20
2022-12-31T09:45:47.001Z,12.23
2022-12-31T09:48:41.614Z,15.77
2022-12-31T09:51:56.229Z,11.40
2022-12-31T09:54:26.035Z,10.88
2022-12-31T09:57:13.074Z,9.70
2022-12-31T09:59:58.512Z,10.98
2022-12-31T10:02:48.764Z,11.57
2022-12-31T10:05:18.906Z,10.85
2022-12-31T10:08:19.563Z,13.95
2022-12-31T10:10:57.783Z,11.05
2022-12-31T10:13:44.332Z,15.90
2022-12-31T10:16:41.766Z,13.75
2022-12-31T10:19:27.443Z,11.50
2022-12-31T10:22:02.913Z,14.88
2022-12-31T10:25:01.074Z,12.05
2022-12-31T10:27:43.707Z,9.13
2022-12-31T10:30:19.820Z,11.73
2022-12-31T10:33:13.114Z,12.13
2022-12-31T10:35:50.878Z,11.45
2022-12-31T10:38:36.434Z,16.58
2022-12-31T10:41:49.410Z,11.15
2022-12-31T10:44:45.192Z,11.13
2022-12-31T10:47:24.420Z,12.13
2022-12-31T10:50:12.171Z,14.48
2022-12-31T10:52:45.477Z,13.95
2022-12-31T10:55:49.778Z,14.48
2022-12-31T10:58:58.019Z,17.48
2022-12-31T11:01:33.022Z,13.38
2022-12-31T11:04:12.210Z,12.63
2022-12-31T11:06:48.546Z,11.00
2022-12-31T11:09:38.770Z,11.80
2022-12-31T11:12:16.821Z,8.98
2022-12-31T11:15:03.821Z,10.05
2022-12-31T11:17:36.739Z,12.95
2022-12-31T11:20:40.737Z,12.57
2022-12-31T11:26:40.860Z,8.52
2022-12-31T11:29:23.025Z,9.18
2022-12-31T11:32:02.291Z,9.88
2022-12-31T11:35:03.935Z,7.95
2022-12-31T11:37:41.734Z,10.02
2022-12-31T11:40:33.552Z,10.43
2022-12-31T11:43:22.825Z,9.98
2022-12-31T11:46:17.012Z,9.50
2022-12-31T11:49:00.844Z,8.80
2022-12-31T11:51:27.890Z,12.80
2022-12-31T11:54:39.041Z,9.15
2022-12-31T11:57:24.735Z,11.02
2022-12-31T11:59:57.998Z,11.00
2022-12-31T12:02:34.400Z,10.65
2022-12-31T12:05:11.506Z,9.25
2022-12-31T12:07:39.061Z,9.73
2022-12-31T12:10:31.767Z,8.70
2022-12-31T12:13:13.646Z,9.95
2022-12-31T12:15:44.493Z,8.30
2022-12-31T12:18:34.113Z,8.50
2022-12-31T12:21:05.831Z,7.45
2022-12-31T12:23:33.096Z,10.57
2022-12-31T12:26:00.230Z,6.72
2022-12-31T12:28:30.831Z,8.90
2022-12-31T12:31:01.985Z,9.07
2022-12-31T12:33:41.320Z,8.38
2022-12-31T12:36:11.088Z,9.35
2022-12-31T12:38:39.270Z,12.30
2022-12-31T12:41:11.614Z,11.95
2022-12-31T12:43:40.122Z,10.77
2022-12-31T12:46:30.657Z,8.55
2022-12-31T12:48:59.822Z,9.43
2022-12-31T12:51:35.830Z,7.03
2022-12-31T12:54:37.138Z,8.73
2022-12-31T12:57:24.553Z,8.80
2022-12-31T13:00:29.907Z,9.27
2022-12-31T13:03:27.070Z,8.55
2022-12-31T13:06:03.397Z,7.05
2022-12-31T13:09:00.143Z,7.70
2022-12-31T13:11:39.761Z,6.03
2022-12-31T13:14:30.998Z,12.65
2022-12-31T13:17:21.238Z,7.47
2022-12-31T13:20:26.287Z,7.03
2022-12-31T13:23:21.306Z,8.30
2022-12-31T13:26:02.073Z,12.82
2022-12-31T13:28:31.924Z,8.23
2022-12-31T13:31:06.788Z,11.40
2022-12-31T13:33:50.338Z,8.00
2022-12-31T13:36:21.471Z,8.15
2022-12-31T13:38:53.672Z,7.20
2022-12-31T13:41:26.610Z,13.10
2022-12-31T13:44:12.451Z,6.97
2022-12-31T13:46:46.030Z,14.38
2022-12-31T13:52:16.796Z,8.55
2022-12-31T13:54:54.525Z,12.32
2022-12-31T13:58:16.613Z,10.00
2022-12-31T14:00:49.295Z,13.45
2022-12-31T14:03:44.277Z,10.02
2022-12-31T14:06:24.181Z,8.05
2022-12-31T14:08:53.570Z,11.02
2022-12-31T14:11:39.419Z,10.73
2022-12-31T14:14:29.663Z,14.80
2022-12-31T14:17:19.772Z,9.55
2022-12-31T14:20:17.928Z,11.25
2022-12-31T14:23:20.201Z,9.30
2022-12-31T14:25:57.402Z,9.90
2022-12-31T14:28:33.061Z,13.38
2022-12-31T14:31:13.882Z,8.27
2022-12-31T14:33:55.079Z,11.55
2022-12-31T14:36:34.365Z,11.73
2022-12-31T14:39:26.321Z,7.70
2022-12-31T14:42:09.073Z,15.32
2022-12-31T14:44:43.067Z,8.67
2022-12-31T14:47:18.960Z,10.57
2022-12-31T14:50:11.023Z,13.38
2022-12-31T14:53:04.406Z,9.95
2022-12-31T14:55:34.301Z,14.68
2022-12-31T15:00:57.016Z,8.98
2022-12-31T15:03:41.210Z,13.05
2022-12-31T15:06:15.084Z,13.43
2022-12-31T15:09:08.248Z,15.82
2022-12-31T15:11:49.722Z,15.90
2022-12-31T15:14:38.490Z,10.45
2022-12-31T15:17:24.038Z,13.20
2022-12-31T15:20:16.932Z,11.15
2022-12-31T15:22:50.425Z,17.02
2022-12-31T15:25:31.697Z,12.82
2022-12-31T15:28:05.683Z,14.95
2022-12-31T15:30:44.858Z,13.88
2022-12-31T15:33:29.833Z,12.20
2022-12-31T15:35:58.587Z,14.85
2022-12-31T15:38:33.311Z,15.55
2022-12-31T15:41:01.256Z,17.55
2022-12-31T15:43:37.071Z,17.83
2022-12-31T15:46:16.570Z,15.30
2022-12-31T15:49:04.970Z,17.42
2022-12-31T15:51:42.601Z,16.35
2022-12-31T15:54:23.192Z,18.02
2022-12-31T15:56:52.113Z,15.07
2022-12-31T15:59:21.565Z,16.42
2022-12-31T16:01:49.192Z,19.30
2022-12-31T16:04:22.909Z,14.10
2022-12-31T16:06:51.396Z,12.43
2022-12-31T16:09:29.190Z,13.55
2022-12-31T16:11:59.312Z,17.85
2022-12-31T16:14:37.609Z,16.73
2022-12-31T16:17:06.316Z,18.58
2022-12-31T16:19:52.313Z,19.02
2022-12-31T16:22:26.935Z,18.58
2022-12-31T16:25:29.669Z,18.77
2022-12-31T16:27:50.137Z,19.88
2022-12-31T16:30:32.295Z,24.02
2022-12-31T16:33:03.836Z,16.80
2022-12-31T16:35:39.387Z,21.17
2022-12-31T16:38:19.747Z,20.92
2022-12-31T16:41:01.728Z,19.75
2022-12-31T16:43:35.809Z,23.58
2022-12-31T16:46:19.589Z,22.67
2022-12-31T16:48:57.361Z,17.23
2022-12-31T16:51:32.561Z,22.50
2022-12-31T16:54:02.160Z,19.30
2022-12-31T16:56:37.959Z,22.25
2022-12-31T16:59:31.926Z,18.73
2022-12-31T17:02:04.913Z,15.85
2022-12-31T17:04:32.216Z,18.10
2022-12-31T17:07:25.317Z,18.45
2022-12-31T17:10:07.628Z,26.73
2022-12-31T17:13:01.036Z,19.15
2022-12-31T17:15:40.484Z,28.23
2022-12-31T17:18:08.569Z,26.55
2022-12-31T17:20:36.742Z,18.67
2022-12-31T17:23:09.455Z,30.67
2022-12-31T17:25:38.462Z,18.73
2022-12-31T17:28:23.426Z,23.65
2022-12-31T17:30:51.387Z,20.15
2022-12-31T17:33:18.396Z,19.27
2022-12-31T17:35:46.588Z,19.38
2022-12-31T17:38:22.616Z,29.33
2022-12-31T17:40:53.694Z,30.02
2022-12-31T17:43:23.955Z,29.02
2022-12-31T17:45:51.974Z,27.55
2022-12-31T17:48:20.585Z,29.00
2022-12-31T17:50:56.675Z,24.25
2022-12-31T17:53:23.779Z,26.23
2022-12-31T17:55:53.538Z,21.88
2022-12-31T17:58:29.635Z,22.73
2022-12-31T18:00:58.161Z,22.42
2022-12-31T18:03:25.533Z,28.42
2022-12-31T18:05:52.634Z,26.42
2022-12-31T18:08:19.740Z,23.48
2022-12-31T18:10:47.153Z,19.52
2022-12-31T18:13:20.407Z,25.02
2022-12-31T18:18:25.538Z,26.73
2022-12-31T18:20:58.835Z,23.55
2022-12-31T18:23:46.509Z,25.20
2022-12-31T18:26:18.788Z,22.45
2022-12-31T18:28:46.699Z,21.05
2022-12-31T18:31:25.582Z,22.63
2022-12-31T18:33:54.653Z,49.45
2022-12-31T18:36:23.095Z,75.13
2022-12-31T18:38:51.083Z,53.30
2022-12-31T18:41:20.709Z,50.80
2022-12-31T18:43:48.350Z,26.75
2022-12-31T18:46:20.553Z,24.98
2022-12-31T18:48:47.885Z,21.55
2022-12-31T18:51:23.974Z,26.08
2022-12-31T18:53:53.703Z,23.30
2022-12-31T18:56:22.304Z,20.63
2022-12-31T18:58:49.408Z,20.02
2022-12-31T19:01:25.232Z,21.23
2022-12-31T19:03:52.733Z,18.10
2022-12-31T19:06:19.779Z,19.73
2022-12-31T19:08:46.911Z,21.35
2022-12-31T19:11:15.289Z,26.70
2022-12-31T19:13:42.552Z,30.10
2022-12-31T19:16:10.280Z,40.28
2022-12-31T19:18:37.851Z,37.53
2022-12-31T19:21:05.165Z,38.05
2022-12-31T19:23:32.364Z,31.05
2022-12-31T19:25:59.425Z,28.98
2022-12-31T19:28:27.857Z,33.83
2022-12-31T19:30:56.067Z,31.45
2022-12-31T19:33:24.734Z,35.03
2022-12-31T19:35:51.886Z,31.90
2022-12-31T19:38:26.517Z,30.90
2022-12-31T19:40:54.975Z,45.47
2022-12-31T19:43:23.807Z,38.33
2022-12-31T19:45:52.995Z,35.05
2022-12-31T19:48:28.760Z,40.53
2022-12-31T19:50:59.810Z,40.28
2022-12-31T19:53:28.215Z,39.65
2022-12-31T19:55:55.393Z,46.58
2022-12-31T19:58:28.589Z,44.25
2022-12-31T20:01:02.346Z,44.22
2022-12-31T20:03:32.840Z,51.05
2022-12-31T20:06:06.232Z,61.13
2022-12-31T20:08:34.565Z,52.67
2022-12-31T20:11:13.510Z,55.38
2022-12-31T20:13:42.751Z,49.80
2022-12-31T20:16:12.456Z,53.65
2022-12-31T20:18:41.212Z,53.17
2022-12-31T20:21:15.045Z,60.38
2022-12-31T20:23:42.305Z,62.30
2022-12-31T20:26:09.980Z,63.95
2022-12-31T20:28:37.893Z,58.90
2022-12-31T20:31:09.828Z,62.88
2022-12-31T20:33:37.171Z,61.35
2022-12-31T20:36:05.857Z,57.45
2022-12-31T20:38:32.906Z,50.22
2022-12-31T20:41:20.427Z,46.53
2022-12-31T20:43:48.164Z,54.22
2022-12-31T20:46:20.876Z,52.10
2022-12-31T20:48:50.163Z,54.25
2022-12-31T20:51:18.257Z,59.03
2022-12-31T20:53:47.916Z,56.33
2022-12-31T20:56:15.957Z,55.17
2022-12-31T20:58:43.737Z,50.72
2022-12-31T21:01:11.407Z,59.53
2022-12-31T21:06:28.668Z,47.22
2022-12-31T21:08:57.755Z,57.45
2022-12-31T21:11:43.496Z,55.92
2022-12-31T21:14:10.609Z,55.35
2022-12-31T21:16:37.610Z,47.25
2022-12-31T21:19:05.664Z,50.13
2022-12-31T21:21:32.829Z,45.00
2022-12-31T21:23:59.852Z,40.83
2022-12-31T21:26:27.748Z,37.80
2022-12-31T21:28:54.839Z,43.20
2022-12-31T21:31:22.050Z,48.63
2022-12-31T21:33:49.501Z,43.25
2022-12-31T21:36:16.582Z,55.47
2022-12-31T21:38:44.464Z,40.85
2022-12-31T21:41:33.547Z,40.40
2022-12-31T21:44:01.610Z,36.80
2022-12-31T21:46:29.256Z,35.45
2022-12-31T21:48:58.645Z,38.53
2022-12-31T21:51:26.572Z,41.83
2022-12-31T21:53:53.597Z,42.72
2022-12-31T21:56:21.821Z,47.63
2022-12-31T21:59:13.658Z,45.17
2022-12-31T22:01:59.489Z,55.60
2022-12-31T22:07:14.146Z,45.92
2022-12-31T22:09:41.194Z,55.47
2022-12-31T22:12:08.289Z,51.80
2022-12-31T22:14:35.430Z,34.38
2022-12-31T22:17:02.410Z,38.80
2022-12-31T22:19:29.387Z,35.63
2022-12-31T22:21:56.503Z,36.67
2022-12-31T22:24:23.575Z,33.25
2022-12-31T22:26:52.222Z,42.47
2022-12-31T22:29:19.985Z,40.30
2022-12-31T22:31:47.400Z,39.00
2022-12-31T22:34:14.630Z,36.25
2022-12-31T22:36:41.756Z,33.83
2022-12-31T22:39:44.787Z,36.22
2022-12-31T22:42:02.200Z,34.15
2022-12-31T22:44:29.413Z,30.98
2022-12-31T22:46:56.503Z,34.83
2022-12-31T22:49:23.749Z,33.83
2022-12-31T22:51:57.299Z,35.97
2022-12-31T22:54:26.130Z,33.97
2022-12-31T22:56:53.272Z,40.33
2022-12-31T22:59:20.501Z,78.72
2022-12-31T23:01:48.350Z,60.38
2022-12-31T23:04:15.954Z,86.25
2022-12-31T23:06:46.240Z,349.83
2022-12-31T23:09:34.054Z,332.08
2022-12-31T23:12:01.762Z,363.40
2022-12-31T23:14:47.555Z,439.27
2022-12-31T23:17:36.758Z,411.33
2022-12-31T23:20:24.524Z,348.95
2022-12-31T23:23:09.688Z,282.25
2022-12-31T23:25:43.398Z,247.77
2022-12-31T23:28:28.335Z,208.23
2022-12-31T23:30:55.434Z,195.27
2022-12-31T23:33:26.619Z,184.60
2022-12-31T23:36:05.591Z,170.75
2022-12-31T23:38:32.670Z,175.88
2022-12-31T23:40:59.609Z,190.13
2022-12-31T23:43:26.716Z,182.45
2022-12-31T23:45:53.760Z,183.13
2022-12-31T23:48:20.934Z,188.18
2022-12-31T23:50:53.363Z,184.48
2022-12-31T23:53:25.116Z,186.18
2022-12-31T23:55:53.162Z,178.70
2022-12-31T23:58:21.275Z,175.55
